Time;durP1;ratioP1;P1;durP2;ratioP2;P2;SDS_P1;SDS_P2;PMS_P1;PMS_P2;Temp;Humidity;BMP_temperature;BMP_pressure;BME280_temperature;BME280_humidity;BME280_pressure;Samples;Min_cycle;Max_cycle;Signal;HPM_P1;HPM_P2
2023/03/30 00:00:17;;;;;;;1.50;1.10;;;13.80;98.20;;;;;;5023184;28;20889;-74
2023/03/30 00:02:44;;;;;;;1.50;1.10;;;13.80;98.20;;;;;;4986164;28;20540;-73
2023/03/30 00:05:13;;;;;;;1.60;1.30;;;13.80;98.20;;;;;;5020692;28;20461;-73
2023/03/30 00:07:41;;;;;;;1.50;1.00;;;13.80;98.20;;;;;;5001845;28;20706;-74
2023/03/30 00:10:09;;;;;;;1.50;1.00;;;13.80;98.20;;;;;;5018487;28;20460;-74
2023/03/30 00:12:37;;;;;;;1.50;1.20;;;13.80;98.20;;;;;;4995205;28;20555;-74
2023/03/30 00:15:06;;;;;;;1.50;1.00;;;13.90;98.20;;;;;;5023356;28;20487;-73
2023/03/30 00:17:33;;;;;;;1.50;1.00;;;13.90;98.20;;;;;;5002654;28;20483;-73
2023/03/30 00:20:05;;;;;;;1.50;0.90;;;13.90;98.20;;;;;;5019994;28;20879;-75
2023/03/30 00:22:33;;;;;;;1.50;1.00;;;14.00;98.20;;;;;;5000524;28;20487;-74
2023/03/30 00:24:59;;;;;;;1.50;1.00;;;14.00;98.20;;;;;;5016293;28;20852;-74
2023/03/30 00:27:27;;;;;;;1.50;1.00;;;14.00;98.20;;;;;;5003199;28;20496;-74
2023/03/30 00:29:53;;;;;;;1.50;1.03;;;14.10;98.20;;;;;;5015234;28;20964;-74
2023/03/30 00:32:20;;;;;;;1.50;1.00;;;14.10;98.20;;;;;;4999117;28;20553;-74
2023/03/30 00:34:47;;;;;;;1.50;1.00;;;14.20;98.20;;;;;;5018659;28;20487;-74
2023/03/30 00:37:15;;;;;;;1.60;1.30;;;14.20;98.20;;;;;;4998738;28;20495;-73
2023/03/30 00:39:43;;;;;;;1.50;1.00;;;14.20;98.20;;;;;;5019895;28;20514;-74
2023/03/30 00:42:15;;;;;;;1.50;1.00;;;14.20;98.20;;;;;;4998587;28;20480;-74
2023/03/30 00:45:05;;;;;;;2.27;1.57;;;14.20;98.20;;;;;;5015549;28;20464;-74
2023/03/30 00:47:33;;;;;;;1.50;1.00;;;14.20;98.20;;;;;;4999998;28;20490;-74
2023/03/30 00:50:00;;;;;;;1.50;1.00;;;14.20;98.20;;;;;;5018862;28;20559;-73
2023/03/30 00:52:27;;;;;;;1.50;1.00;;;14.20;98.20;;;;;;4995782;28;20487;-74
2023/03/30 00:54:57;;;;;;;1.50;1.00;;;14.10;98.20;;;;;;5017545;28;20509;-74
2023/03/30 00:57:26;;;;;;;1.50;1.10;;;14.10;98.20;;;;;;5002367;28;20477;-73
2023/03/30 00:59:54;;;;;;;2.33;1.43;;;14.10;98.20;;;;;;5011177;28;20464;-74
2023/03/30 01:02:22;;;;;;;1.50;1.00;;;14.10;98.20;;;;;;4998580;28;20564;-74
2023/03/30 01:04:52;;;;;;;1.50;1.00;;;14.00;98.20;;;;;;5020105;28;20838;-72
2023/03/30 01:07:23;;;;;;;1.50;1.00;;;14.00;98.20;;;;;;5005303;28;20496;-74
2023/03/30 01:09:50;;;;;;;1.50;1.10;;;14.10;98.20;;;;;;5026078;28;20787;-74
2023/03/30 01:12:19;;;;;;;1.50;1.00;;;14.10;98.20;;;;;;4997201;28;20476;-73
2023/03/30 01:14:46;;;;;;;1.50;1.10;;;14.10;98.20;;;;;;5013432;28;20492;-74
2023/03/30 01:17:18;;;;;;;1.50;1.00;;;14.10;98.20;;;;;;5001169;28;20531;-74
2023/03/30 01:20:13;;;;;;;1.50;1.00;;;14.10;98.20;;;;;;5014882;28;20464;-73
2023/03/30 01:23:11;;;;;;;1.50;1.00;;;14.20;98.20;;;;;;4992583;28;20489;-74
2023/03/30 01:26:07;;;;;;;1.50;1.00;;;14.20;98.20;;;;;;5020792;28;21022;-74
2023/03/30 01:28:42;;;;;;;1.50;1.00;;;14.20;98.20;;;;;;4984629;28;20486;-74
2023/03/30 01:31:34;;;;;;;1.50;1.00;;;14.20;98.20;;;;;;4999660;28;20491;-74
2023/03/30 01:34:21;;;;;;;1.50;0.90;;;14.20;98.20;;;;;;5000315;28;20456;-74
2023/03/30 01:37:25;;;;;;;1.50;1.00;;;14.30;98.20;;;;;;4998026;28;20484;-74
2023/03/30 01:40:01;;;;;;;1.50;1.00;;;14.30;98.20;;;;;;4984292;28;20816;-74
2023/03/30 01:42:35;;;;;;;1.50;1.00;;;14.30;98.20;;;;;;4988362;28;20480;-74
2023/03/30 01:45:12;;;;;;;1.50;1.00;;;14.30;98.20;;;;;;5006884;28;20464;-74
2023/03/30 01:47:43;;;;;;;1.50;1.00;;;14.30;98.20;;;;;;4983454;28;20539;-74
2023/03/30 01:50:15;;;;;;;1.50;0.90;;;14.20;98.20;;;;;;5000958;28;20488;-74
2023/03/30 01:52:47;;;;;;;1.50;1.00;;;14.20;98.20;;;;;;4994175;28;20480;-74
2023/03/30 01:55:19;;;;;;;1.50;1.00;;;14.20;98.20;;;;;;5010192;28;20998;-74
2023/03/30 01:57:50;;;;;;;1.50;1.00;;;14.20;98.20;;;;;;4995898;28;20563;-73
2023/03/30 02:00:20;;;;;;;1.50;1.00;;;14.10;98.20;;;;;;5011301;28;20566;-74
2023/03/30 02:02:51;;;;;;;1.50;1.00;;;14.10;98.20;;;;;;4990234;28;20480;-73
2023/03/30 02:05:21;;;;;;;1.50;1.10;;;14.10;98.20;;;;;;5022828;28;20455;-74
2023/03/30 02:07:52;;;;;;;1.50;1.00;;;14.10;98.20;;;;;;4997166;28;20532;-74
2023/03/30 02:10:23;;;;;;;1.50;1.00;;;14.10;98.20;;;;;;5011537;28;20502;-73
2023/03/30 02:12:51;;;;;;;1.50;1.10;;;14.00;98.20;;;;;;4996974;28;20484;-74
2023/03/30 02:15:19;;;;;;;1.50;1.00;;;14.00;98.20;;;;;;5022900;28;20501;-74
2023/03/30 02:17:47;;;;;;;1.50;1.00;;;14.00;98.20;;;;;;5016070;28;20476;-74
2023/03/30 02:20:16;;;;;;;1.50;1.10;;;14.00;98.20;;;;;;5018458;28;20480;-73
2023/03/30 02:22:43;;;;;;;1.50;0.97;;;14.00;98.20;;;;;;5014229;28;20965;-73
2023/03/30 02:25:11;;;;;;;1.60;1.37;;;14.00;98.20;;;;;;5028525;28;20550;-74
2023/03/30 02:27:40;;;;;;;1.50;1.00;;;14.10;98.20;;;;;;5019642;28;20538;-74
2023/03/30 02:30:09;;;;;;;1.50;1.10;;;14.10;98.20;;;;;;5013565;28;20468;-74
2023/03/30 02:32:41;;;;;;;1.50;1.00;;;14.10;98.20;;;;;;5009534;28;20471;-74
2023/03/30 02:35:23;;;;;;;1.50;1.00;;;14.10;98.20;;;;;;5018130;28;20459;-73
2023/03/30 02:38:15;;;;;;;1.50;1.00;;;14.10;98.20;;;;;;5020534;28;20604;-73
2023/03/30 02:40:53;;;;;;;1.50;1.00;;;14.10;98.20;;;;;;5011770;28;20498;-74
2023/03/30 02:43:33;;;;;;;1.50;1.00;;;14.10;98.20;;;;;;5019932;28;20962;-73
2023/03/30 02:46:13;;;;;;;1.57;1.30;;;14.10;98.20;;;;;;5022512;28;20844;-73
2023/03/30 02:48:48;;;;;;;1.50;1.00;;;14.00;98.20;;;;;;5014948;28;20574;-73
2023/03/30 02:51:31;;;;;;;1.50;1.10;;;14.00;98.20;;;;;;5015512;28;20490;-73
2023/03/30 02:54:03;;;;;;;1.50;1.00;;;14.00;98.20;;;;;;5016329;28;20518;-74
2023/03/30 02:56:37;;;;;;;1.50;1.00;;;13.90;98.20;;;;;;5021840;28;20491;-73
2023/03/30 02:59:11;;;;;;;1.50;1.00;;;13.90;98.20;;;;;;5009487;28;20464;-74
2023/03/30 03:01:43;;;;;;;1.50;1.00;;;13.80;98.20;;;;;;5008340;28;21164;-73
2023/03/30 03:04:11;;;;;;;1.50;1.03;;;13.80;98.20;;;;;;5019741;28;20455;-74
2023/03/30 03:06:38;;;;;;;1.50;1.00;;;13.80;98.20;;;;;;5020880;28;20542;-73
2023/03/30 03:09:05;;;;;;;1.50;1.00;;;13.80;98.20;;;;;;5018238;28;20494;-73
2023/03/30 03:11:32;;;;;;;1.50;1.00;;;13.80;98.20;;;;;;5015442;28;20985;-73
2023/03/30 03:13:59;;;;;;;1.50;1.00;;;13.80;98.20;;;;;;5022243;28;20470;-73
2023/03/30 03:16:27;;;;;;;1.50;1.03;;;13.90;98.20;;;;;;5022984;28;20483;-73
2023/03/30 03:18:54;;;;;;;1.50;1.00;;;13.90;98.20;;;;;;5022289;28;20479;-73
2023/03/30 03:21:30;;;;;;;1.50;1.00;;;14.00;98.20;;;;;;5023669;28;20481;-73
2023/03/30 03:23:56;;;;;;;1.50;1.00;;;14.10;98.20;;;;;;5012605;28;20482;-73
2023/03/30 03:26:23;;;;;;;1.50;1.00;;;14.10;98.20;;;;;;5023245;28;20485;-73
2023/03/30 03:28:50;;;;;;;1.50;1.00;;;14.10;98.20;;;;;;5013799;28;20467;-74
2023/03/30 03:31:17;;;;;;;1.50;0.90;;;14.10;98.20;;;;;;5012419;28;20484;-74
2023/03/30 03:33:45;;;;;;;1.50;1.10;;;14.10;98.20;;;;;;5022472;28;20491;-73
2023/03/30 03:36:12;;;;;;;1.50;1.00;;;14.00;98.20;;;;;;5023759;28;20510;-74
2023/03/30 03:38:38;;;;;;;1.50;1.00;;;14.00;98.20;;;;;;5018790;28;20467;-73
2023/03/30 03:41:05;;;;;;;1.50;1.10;;;14.00;98.20;;;;;;5022147;28;20479;-73
2023/03/30 03:43:32;;;;;;;1.50;1.07;;;13.90;98.20;;;;;;5025378;28;20478;-74
2023/03/30 03:45:59;;;;;;;1.50;1.00;;;13.90;98.20;;;;;;5025693;28;20479;-73
2023/03/30 03:48:26;;;;;;;1.50;1.00;;;13.80;98.20;;;;;;5026542;28;20463;-74
2023/03/30 03:50:57;;;;;;;1.50;1.00;;;13.80;98.20;;;;;;5020363;28;20642;-73
2023/03/30 03:53:26;;;;;;;1.47;1.00;;;13.80;98.20;;;;;;5022638;28;20469;-75
2023/03/30 03:55:53;;;;;;;1.50;1.10;;;13.80;98.20;;;;;;5024260;28;20483;-74
2023/03/30 03:58:20;;;;;;;1.50;1.00;;;13.80;98.20;;;;;;5021450;28;20830;-74
2023/03/30 04:00:48;;;;;;;1.50;1.00;;;13.80;98.20;;;;;;5014710;28;20514;-74
2023/03/30 04:03:15;;;;;;;1.50;1.10;;;13.80;98.20;;;;;;5022918;28;20463;-73
2023/03/30 04:05:42;;;;;;;1.50;1.00;;;13.80;98.20;;;;;;5028653;28;20555;-73
2023/03/30 04:08:10;;;;;;;1.50;1.00;;;13.80;98.20;;;;;;5028632;28;20546;-73
2023/03/30 04:10:38;;;;;;;1.50;1.00;;;13.80;98.20;;;;;;5016246;28;20621;-73
2023/03/30 04:13:06;;;;;;;1.50;1.00;;;13.80;98.20;;;;;;5010047;28;20541;-73
2023/03/30 04:15:33;;;;;;;1.50;1.10;;;13.80;98.20;;;;;;5015795;28;20468;-74
2023/03/30 04:18:01;;;;;;;1.50;1.00;;;13.80;98.20;;;;;;5012255;28;20518;-74
2023/03/30 04:20:29;;;;;;;1.50;1.00;;;13.80;98.20;;;;;;5020755;28;20582;-74
2023/03/30 04:23:03;;;;;;;1.50;1.00;;;13.80;98.20;;;;;;5019042;28;20466;-73
2023/03/30 04:25:31;;;;;;;1.50;1.10;;;13.80;98.20;;;;;;5000134;28;20541;-73
2023/03/30 04:27:58;;;;;;;1.50;0.93;;;13.70;98.20;;;;;;5003756;28;21020;-74
2023/03/30 04:30:29;;;;;;;1.50;1.03;;;13.70;98.20;;;;;;5003375;28;20916;-75
2023/03/30 04:33:03;;;;;;;1.50;1.00;;;13.70;98.20;;;;;;5001128;28;20464;-74
2023/03/30 04:35:38;;;;;;;1.50;1.00;;;13.60;98.20;;;;;;5002280;28;21049;-73
2023/03/30 04:38:06;;;;;;;1.50;1.00;;;13.70;98.20;;;;;;4999360;28;20539;-74
2023/03/30 04:40:35;;;;;;;1.47;0.90;;;13.80;98.20;;;;;;5000978;28;20575;-73
2023/03/30 04:43:03;;;;;;;1.50;1.00;;;13.80;98.20;;;;;;5001849;28;21036;-74
2023/03/30 04:45:31;;;;;;;1.60;1.10;;;13.90;98.20;;;;;;5000350;28;20914;-74
2023/03/30 04:47:58;;;;;;;1.50;1.00;;;13.90;98.20;;;;;;5016615;28;20459;-74
2023/03/30 04:50:26;;;;;;;1.50;1.00;;;14.00;98.20;;;;;;5018805;28;20541;-74
2023/03/30 04:52:53;;;;;;;1.50;1.00;;;14.00;98.20;;;;;;5016963;28;20464;-74
2023/03/30 04:55:20;;;;;;;1.50;1.00;;;14.00;98.20;;;;;;5018108;28;20502;-74
2023/03/30 04:57:54;;;;;;;1.50;1.20;;;14.00;98.20;;;;;;5021854;28;20997;-74
2023/03/30 05:00:22;;;;;;;1.50;1.00;;;14.00;98.20;;;;;;5014252;28;20744;-74
2023/03/30 05:02:49;;;;;;;1.50;1.03;;;14.10;98.20;;;;;;5018635;28;20805;-74
2023/03/30 05:05:17;;;;;;;1.50;1.00;;;14.10;98.20;;;;;;5019966;28;20469;-74
2023/03/30 05:07:45;;;;;;;1.50;1.00;;;14.10;98.20;;;;;;5008132;28;20488;-73
2023/03/30 05:10:12;;;;;;;1.60;1.30;;;14.20;98.20;;;;;;5011642;28;20674;-72
2023/03/30 05:12:40;;;;;;;1.50;1.00;;;14.20;98.20;;;;;;5012400;28;20474;-73
2023/03/30 05:15:10;;;;;;;1.50;1.00;;;14.30;98.20;;;;;;5018486;28;20467;-74
2023/03/30 05:17:38;;;;;;;1.60;1.30;;;14.30;98.20;;;;;;5011974;28;20494;-73
2023/03/30 05:20:08;;;;;;;1.50;1.00;;;14.30;98.20;;;;;;5015003;28;20456;-74
2023/03/30 05:22:58;;;;;;;1.50;0.90;;;14.30;98.20;;;;;;5017478;28;20456;-73
2023/03/30 05:25:26;;;;;;;1.50;1.00;;;14.40;98.20;;;;;;5021176;28;21017;-72
2023/03/30 05:27:53;;;;;;;1.50;1.00;;;14.40;98.20;;;;;;5018621;28;20448;-74
2023/03/30 05:30:22;;;;;;;1.50;1.00;;;14.40;98.20;;;;;;5016790;28;20541;-73
2023/03/30 05:32:50;;;;;;;1.50;1.00;;;14.40;98.20;;;;;;5020303;28;21040;-73
2023/03/30 05:35:17;;;;;;;1.50;1.00;;;14.40;98.20;;;;;;5015280;28;20464;-73
2023/03/30 05:37:45;;;;;;;1.50;1.10;;;14.40;98.20;;;;;;5012454;28;20487;-72
2023/03/30 05:40:13;;;;;;;1.50;1.00;;;14.40;98.20;;;;;;5022655;28;20497;-73
2023/03/30 05:42:42;;;;;;;1.50;1.00;;;14.40;98.20;;;;;;5022389;28;20562;-73
2023/03/30 05:45:10;;;;;;;1.50;1.00;;;14.40;98.20;;;;;;5019787;28;20468;-73
2023/03/30 05:47:39;;;;;;;1.50;1.00;;;14.40;98.20;;;;;;5016678;28;20456;-73
2023/03/30 05:50:08;;;;;;;1.50;0.93;;;14.40;98.20;;;;;;5017900;28;20479;-74
2023/03/30 05:52:36;;;;;;;1.50;1.00;;;14.40;98.20;;;;;;5015333;28;20468;-74
2023/03/30 05:55:04;;;;;;;1.50;1.00;;;14.40;98.20;;;;;;5015613;28;20463;-74
2023/03/30 05:57:32;;;;;;;1.50;1.00;;;14.30;98.20;;;;;;5016496;28;20570;-73
2023/03/30 05:59:59;;;;;;;1.50;1.00;;;14.30;98.20;;;;;;5015583;28;20521;-73
2023/03/30 06:02:27;;;;;;;1.50;1.00;;;14.30;98.20;;;;;;5016289;28;20451;-73
2023/03/30 06:04:56;;;;;;;1.50;1.10;;;14.30;98.20;;;;;;5018602;28;20960;-73
2023/03/30 06:07:23;;;;;;;1.50;1.00;;;14.20;98.20;;;;;;5012182;28;21113;-73
2023/03/30 06:09:51;;;;;;;1.50;1.00;;;14.20;98.20;;;;;;5016461;28;21033;-73
2023/03/30 06:12:19;;;;;;;1.50;1.10;;;14.20;98.20;;;;;;5013551;28;20468;-73
2023/03/30 06:14:46;;;;;;;1.50;1.10;;;14.20;98.20;;;;;;5016451;28;20466;-74
2023/03/30 06:17:14;;;;;;;1.50;1.00;;;14.20;98.20;;;;;;5009370;28;20492;-74
2023/03/30 06:22:50;;;;;;;1.50;1.03;;;14.30;98.20;;;;;;5020162;28;20467;-74
2023/03/30 06:25:19;;;;;;;1.50;1.00;;;14.30;98.20;;;;;;5016216;28;20463;-75
2023/03/30 06:27:47;;;;;;;1.50;0.93;;;14.30;98.20;;;;;;5009573;28;20491;-73
2023/03/30 06:30:15;;;;;;;1.50;1.00;;;14.40;98.20;;;;;;5016115;28;20483;-73
2023/03/30 06:32:43;;;;;;;1.50;1.00;;;14.40;98.20;;;;;;5013790;28;20529;-73
2023/03/30 06:35:12;;;;;;;1.50;1.00;;;14.40;98.20;;;;;;5020620;28;20950;-74
2023/03/30 06:37:39;;;;;;;1.50;1.00;;;14.40;98.20;;;;;;5018489;28;20484;-75
2023/03/30 06:40:12;;;;;;;1.50;1.03;;;14.40;98.20;;;;;;5017742;28;20471;-74
2023/03/30 06:42:39;;;;;;;1.50;1.00;;;14.40;98.20;;;;;;5017860;28;20463;-73
2023/03/30 06:45:08;;;;;;;1.50;1.00;;;14.40;98.20;;;;;;5016418;28;20492;-73
2023/03/30 06:47:35;;;;;;;1.50;1.00;;;14.50;98.20;;;;;;5015414;28;20451;-74
2023/03/30 06:50:03;;;;;;;1.47;1.00;;;14.60;98.20;;;;;;5015381;28;20459;-74
2023/03/30 06:52:35;;;;;;;1.50;1.10;;;14.60;98.20;;;;;;5013057;28;20517;-75
2023/03/30 06:55:02;;;;;;;1.50;1.00;;;14.70;98.20;;;;;;5010514;28;20464;-74
2023/03/30 06:57:31;;;;;;;1.50;1.00;;;14.80;98.20;;;;;;5017231;28;20665;-74
2023/03/30 06:59:58;;;;;;;1.50;1.00;;;15.10;98.20;;;;;;5011417;28;20493;-74
2023/03/30 07:02:26;;;;;;;1.50;0.97;;;15.40;98.20;;;;;;4998354;28;20495;-74
2023/03/30 07:04:54;;;;;;;1.50;1.00;;;15.60;98.20;;;;;;5013951;28;20464;-74
2023/03/30 07:07:21;;;;;;;1.50;0.90;;;15.60;98.20;;;;;;4990915;28;20489;-73
2023/03/30 07:09:50;;;;;;;1.50;1.00;;;15.70;98.20;;;;;;5011614;28;20955;-74
2023/03/30 07:12:18;;;;;;;1.50;1.00;;;15.60;98.20;;;;;;4992596;28;20498;-74
2023/03/30 07:14:46;;;;;;;1.50;1.00;;;15.60;98.20;;;;;;5011561;28;20547;-74
2023/03/30 07:17:15;;;;;;;1.50;1.00;;;15.60;98.20;;;;;;4991899;28;20488;-73
2023/03/30 07:19:42;;;;;;;1.50;1.10;;;15.60;98.20;;;;;;5015196;28;20566;-74
2023/03/30 07:22:13;;;;;;;1.50;1.10;;;15.70;98.20;;;;;;4994224;28;20495;-74
2023/03/30 07:24:40;;;;;;;1.50;0.93;;;15.70;98.20;;;;;;5016052;28;20554;-74
2023/03/30 07:27:09;;;;;;;1.50;1.10;;;15.70;98.20;;;;;;4997305;28;20472;-74
2023/03/30 07:29:37;;;;;;;1.50;0.90;;;15.70;98.20;;;;;;5009323;28;20455;-74
2023/03/30 07:32:05;;;;;;;1.50;1.00;;;15.70;98.20;;;;;;4996923;28;20773;-75
2023/03/30 07:34:33;;;;;;;1.50;1.00;;;15.70;98.20;;;;;;5012622;28;20459;-74
2023/03/30 07:37:05;;;;;;;1.50;0.90;;;15.60;98.20;;;;;;4994109;28;20646;-74
2023/03/30 07:39:33;;;;;;;1.50;1.00;;;15.60;98.20;;;;;;5005385;28;21410;-74
2023/03/30 07:42:01;;;;;;;1.50;1.00;;;15.70;98.20;;;;;;4998238;28;20530;-75
2023/03/30 07:44:30;;;;;;;1.50;1.00;;;15.70;98.20;;;;;;5015530;28;20459;-74
2023/03/30 07:46:58;;;;;;;1.50;0.90;;;15.70;98.20;;;;;;4996938;28;21095;-74
2023/03/30 07:49:26;;;;;;;1.50;1.00;;;15.70;98.20;;;;;;5012210;28;20464;-74
2023/03/30 07:51:54;;;;;;;1.80;1.43;;;15.60;98.20;;;;;;4995724;28;20588;-74
2023/03/30 07:54:22;;;;;;;1.50;0.90;;;15.60;98.20;;;;;;5007824;28;21003;-74
2023/03/30 07:56:51;;;;;;;3.70;2.30;;;15.60;98.20;;;;;;4996368;28;20875;-74
2023/03/30 07:59:19;;;;;;;1.50;1.00;;;15.60;98.20;;;;;;5008322;28;20493;-76
2023/03/30 08:01:50;;;;;;;1.50;1.00;;;15.60;98.20;;;;;;5005584;28;20479;-74
2023/03/30 08:04:18;;;;;;;1.50;1.00;;;15.50;98.20;;;;;;5015799;28;20494;-75
2023/03/30 08:06:46;;;;;;;1.50;1.00;;;15.30;98.20;;;;;;5004772;28;20534;-73
2023/03/30 08:09:14;;;;;;;1.50;1.00;;;15.10;98.20;;;;;;5016795;28;20525;-75
2023/03/30 08:11:41;;;;;;;1.50;1.00;;;15.00;98.20;;;;;;4999072;28;21472;-75
2023/03/30 08:14:09;;;;;;;1.50;0.97;;;14.70;98.20;;;;;;5015760;28;20478;-76
2023/03/30 08:16:37;;;;;;;1.50;1.10;;;14.50;98.20;;;;;;5002121;28;20526;-76
2023/03/30 08:19:07;;;;;;;1.90;1.60;;;14.30;98.20;;;;;;5018092;28;20480;-76
2023/03/30 08:21:35;;;;;;;1.50;1.00;;;14.20;98.20;;;;;;5005115;28;20496;-74
2023/03/30 08:24:04;;;;;;;1.50;1.00;;;14.10;98.20;;;;;;5019858;28;20518;-75
2023/03/30 08:26:31;;;;;;;1.50;0.90;;;14.10;98.20;;;;;;5005928;28;20875;-76
2023/03/30 08:28:59;;;;;;;1.50;1.00;;;14.10;98.20;;;;;;5006192;28;20472;-75
2023/03/30 08:31:26;;;;;;;1.50;1.10;;;14.10;98.20;;;;;;5008179;28;20496;-75
2023/03/30 08:33:54;;;;;;;1.50;1.00;;;14.10;98.20;;;;;;5011215;28;20550;-76
2023/03/30 08:36:23;;;;;;;1.50;1.00;;;14.10;98.20;;;;;;5003950;28;20620;-76
2023/03/30 08:38:51;;;;;;;1.50;1.00;;;14.10;98.20;;;;;;5007146;28;20485;-75
2023/03/30 08:42:00;;;;;;;1.50;1.10;;;14.00;98.20;;;;;;5004666;28;20504;-76
2023/03/30 08:44:35;;;;;;;1.50;1.00;;;14.10;98.20;;;;;;4998525;28;20460;-76
2023/03/30 08:47:06;;;;;;;1.50;1.00;;;14.10;98.20;;;;;;5007045;28;20479;-75
2023/03/30 08:49:39;;;;;;;1.43;1.00;;;14.20;98.20;;;;;;5017862;28;20504;-75
2023/03/30 08:52:13;;;;;;;1.50;1.10;;;14.40;98.20;;;;;;5001448;28;20496;-76
2023/03/30 08:54:40;;;;;;;1.50;1.00;;;14.50;98.20;;;;;;5012470;28;20476;-74
2023/03/30 08:57:17;;;;;;;1.50;1.00;;;14.70;98.20;;;;;;5000045;28;21163;-74
2023/03/30 08:59:53;;;;;;;1.50;1.00;;;14.80;98.20;;;;;;5013224;28;20547;-74
2023/03/30 09:02:24;;;;;;;1.50;1.00;;;15.10;98.20;;;;;;4994057;28;20919;-74
2023/03/30 09:05:00;;;;;;;1.53;1.10;;;15.60;98.20;;;;;;5011859;28;20464;-75
2023/03/30 09:07:33;;;;;;;1.50;1.00;;;16.20;98.20;;;;;;5002749;28;20538;-76
2023/03/30 09:10:01;;;;;;;1.50;0.90;;;16.80;98.20;;;;;;5016410;28;20463;-74
2023/03/30 09:12:40;;;;;;;1.57;1.00;;;17.20;98.20;;;;;;4996321;28;20475;-77
2023/03/30 09:15:15;;;;;;;1.50;1.00;;;17.20;98.20;;;;;;5018452;28;20629;-76
2023/03/30 09:17:47;;;;;;;1.57;1.00;;;16.80;98.20;;;;;;4996013;28;20484;-76
2023/03/30 09:20:19;;;;;;;1.50;0.90;;;16.20;98.20;;;;;;5016354;28;20499;-77
2023/03/30 09:22:49;;;;;;;1.50;1.00;;;15.70;98.20;;;;;;4991078;28;20538;-78
2023/03/30 09:25:20;;;;;;;1.50;0.90;;;15.10;98.20;;;;;;5014918;28;20460;-77
2023/03/30 09:27:58;;;;;;;1.50;0.90;;;14.60;98.20;;;;;;4993273;28;20484;-75
2023/03/30 09:30:32;;;;;;;1.50;1.00;;;14.20;98.20;;;;;;5015246;28;20563;-77
2023/03/30 09:33:06;;;;;;;1.50;1.03;;;13.90;98.20;;;;;;4991723;28;21032;-77
2023/03/30 09:35:41;;;;;;;1.50;1.10;;;13.70;98.20;;;;;;5017092;28;20977;-77
2023/03/30 09:38:13;;;;;;;1.50;1.00;;;13.50;98.20;;;;;;4992124;28;20597;-76
2023/03/30 09:41:05;;;;;;;1.50;1.10;;;13.30;98.20;;;;;;5017248;28;20487;-77
2023/03/30 09:43:36;;;;;;;1.50;1.00;;;13.10;98.20;;;;;;4985701;28;20480;-79
2023/03/30 09:46:06;;;;;;;1.50;1.00;;;12.90;98.20;;;;;;5005568;28;20460;-78
2023/03/30 09:48:42;;;;;;;1.50;1.00;;;12.80;98.20;;;;;;5015922;28;20572;-77
2023/03/30 09:51:22;;;;;;;1.50;1.00;;;12.70;98.20;;;;;;5007178;28;21777;-78
2023/03/30 09:54:00;;;;;;;1.50;1.10;;;12.60;98.20;;;;;;5005855;28;20482;-77
2023/03/30 09:56:30;;;;;;;1.50;1.00;;;12.50;98.20;;;;;;5002206;28;20483;-78
2023/03/30 09:58:57;;;;;;;1.50;1.00;;;12.50;98.20;;;;;;5006851;28;20487;-80
2023/03/30 10:01:37;;;;;;;1.50;1.00;;;12.50;98.20;;;;;;5003407;28;21200;-77
2023/03/30 10:04:10;;;;;;;1.50;1.00;;;12.40;98.20;;;;;;5013322;28;20503;-77
2023/03/30 10:06:45;;;;;;;1.50;1.00;;;12.40;98.20;;;;;;5003901;28;20505;-75
2023/03/30 10:09:14;;;;;;;1.50;1.00;;;12.40;98.20;;;;;;5006714;28;20459;-76
2023/03/30 10:11:45;;;;;;;1.50;1.00;;;12.40;98.20;;;;;;5003192;28;20479;-74
2023/03/30 10:14:28;;;;;;;1.50;1.00;;;12.40;98.20;;;;;;5007254;28;20456;-76
2023/03/30 10:16:57;;;;;;;1.50;1.00;;;12.40;98.20;;;;;;4997164;28;20481;-74
2023/03/30 10:19:25;;;;;;;1.50;1.10;;;12.40;98.20;;;;;;5013436;28;20840;-74
2023/03/30 10:21:58;;;;;;;1.50;1.10;;;12.50;98.20;;;;;;4998074;28;20575;-74
2023/03/30 10:24:30;;;;;;;1.50;1.00;;;12.60;98.20;;;;;;5013826;28;20470;-73
2023/03/30 10:26:59;;;;;;;1.50;0.90;;;12.70;98.20;;;;;;5001871;28;20480;-74
2023/03/30 10:29:29;;;;;;;1.50;1.10;;;12.70;98.20;;;;;;5008609;28;20880;-74
2023/03/30 10:32:01;;;;;;;1.50;1.00;;;12.90;98.20;;;;;;4996520;28;20488;-74
2023/03/30 10:34:37;;;;;;;1.50;1.00;;;12.90;98.20;;;;;;5008199;28;20518;-75
2023/03/30 10:37:09;;;;;;;1.50;1.00;;;13.10;98.20;;;;;;4998883;28;20483;-73
2023/03/30 10:39:47;;;;;;;1.50;1.10;;;13.40;98.20;;;;;;5017599;28;20574;-74
2023/03/30 10:42:17;;;;;;;1.50;1.00;;;13.50;98.20;;;;;;5001676;28;20492;-74
2023/03/30 10:44:50;;;;;;;1.50;1.10;;;13.70;98.20;;;;;;5009213;28;20479;-74
2023/03/30 10:47:31;;;;;;;1.50;1.10;;;13.80;98.20;;;;;;4988136;28;20484;-74
2023/03/30 10:50:07;;;;;;;1.50;1.00;;;14.00;98.20;;;;;;5012127;28;20880;-74
2023/03/30 10:52:45;;;;;;;1.50;1.00;;;14.20;98.20;;;;;;5001054;28;20575;-74
2023/03/30 10:55:20;;;;;;;1.50;1.00;;;14.40;98.20;;;;;;5018957;28;20554;-74
2023/03/30 10:57:57;;;;;;;1.50;0.90;;;14.80;98.20;;;;;;4991535;28;20472;-74
2023/03/30 11:00:50;;;;;;;1.50;0.90;;;15.30;98.20;;;;;;5019257;28;20486;-74
2023/03/30 11:03:24;;;;;;;1.50;0.90;;;15.80;98.20;;;;;;4994285;28;20479;-74
2023/03/30 11:05:55;;;;;;;1.50;1.00;;;16.20;98.20;;;;;;5006276;28;21016;-74
2023/03/30 11:08:29;;;;;;;1.50;0.90;;;16.50;98.20;;;;;;5003601;28;20509;-74
2023/03/30 11:11:00;;;;;;;1.50;1.10;;;16.70;98.20;;;;;;5005209;28;20501;-74
2023/03/30 11:13:31;;;;;;;1.57;0.90;;;16.90;98.20;;;;;;5004299;28;20518;-74
2023/03/30 11:16:02;;;;;;;1.50;1.00;;;17.10;98.20;;;;;;5005193;28;20466;-74
2023/03/30 11:18:38;;;;;;;1.53;0.90;;;17.20;98.20;;;;;;5012097;28;20526;-73
2023/03/30 11:21:12;;;;;;;1.50;0.97;;;17.30;98.20;;;;;;5008120;28;20674;-73
2023/03/30 11:23:45;;;;;;;1.60;1.00;;;17.40;98.20;;;;;;5013579;28;20836;-73
2023/03/30 11:26:18;;;;;;;1.50;0.90;;;17.40;98.20;;;;;;5007746;28;20475;-73
2023/03/30 11:28:54;;;;;;;1.50;0.93;;;17.10;98.20;;;;;;5008340;28;20459;-73
2023/03/30 11:31:37;;;;;;;1.50;1.00;;;16.90;98.20;;;;;;5003905;28;20495;-74
2023/03/30 11:34:13;;;;;;;1.50;0.90;;;16.90;98.20;;;;;;5007083;28;20845;-74
2023/03/30 11:36:48;;;;;;;1.50;0.90;;;16.90;98.20;;;;;;4999102;28;20559;-73
2023/03/30 11:39:19;;;;;;;1.50;1.00;;;17.00;98.20;;;;;;5014116;28;20570;-74
2023/03/30 11:41:52;;;;;;;1.50;1.00;;;17.10;98.20;;;;;;4991856;28;20542;-74
2023/03/30 11:44:20;;;;;;;1.53;1.00;;;17.20;98.20;;;;;;5015560;28;20975;-74
2023/03/30 11:46:56;;;;;;;1.50;1.00;;;17.40;98.20;;;;;;4999152;28;20476;-73
2023/03/30 11:49:37;;;;;;;1.50;0.90;;;17.50;98.20;;;;;;5014996;28;20455;-74
2023/03/30 11:52:17;;;;;;;1.50;0.90;;;17.70;97.50;;;;;;4998933;28;21002;-74
2023/03/30 11:55:12;;;;;;;1.57;0.90;;;17.80;96.90;;;;;;5006827;28;20468;-73
2023/03/30 11:57:48;;;;;;;1.50;0.90;;;17.90;97.40;;;;;;4991930;28;20487;-75
2023/03/30 12:00:28;;;;;;;1.50;1.00;;;17.80;96.70;;;;;;5017760;28;20495;-74
2023/03/30 12:03:06;;;;;;;1.50;0.90;;;17.60;97.30;;;;;;4995681;28;20553;-74
2023/03/30 12:05:39;;;;;;;1.50;0.90;;;17.40;98.00;;;;;;5020370;28;20459;-75
2023/03/30 12:08:19;;;;;;;1.50;1.00;;;17.00;98.20;;;;;;4992731;28;20489;-75
2023/03/30 12:11:12;;;;;;;1.50;0.90;;;16.80;98.20;;;;;;5019130;28;20488;-75
2023/03/30 12:13:41;;;;;;;1.50;1.00;;;16.70;98.20;;;;;;4991666;28;20503;-75
2023/03/30 12:16:12;;;;;;;1.50;0.90;;;16.60;98.20;;;;;;5010863;28;20469;-76
2023/03/30 12:18:43;;;;;;;1.50;1.00;;;16.50;98.20;;;;;;5009595;28;20521;-74
2023/03/30 12:21:28;;;;;;;1.50;0.90;;;16.30;98.20;;;;;;5006721;28;21730;-75
2023/03/30 12:24:05;;;;;;;1.50;1.00;;;16.10;98.20;;;;;;5012714;28;20551;-76
2023/03/30 12:27:09;;;;;;;1.50;1.00;;;15.80;98.20;;;;;;5007651;28;20488;-79
2023/03/30 12:29:50;;;;;;;1.50;0.90;;;15.40;98.20;;;;;;5021126;28;20466;-79
2023/03/30 12:32:36;;;;;;;1.50;1.00;;;15.10;98.20;;;;;;4997504;28;20492;-76
2023/03/30 12:35:43;;;;;;;1.50;1.00;;;14.80;98.20;;;;;;5018526;28;20530;-75
2023/03/30 12:38:16;;;;;;;1.50;0.90;;;14.80;98.20;;;;;;5007644;28;20487;-76
2023/03/30 12:40:46;;;;;;;1.50;1.00;;;14.80;98.20;;;;;;5015343;28;20486;-76
2023/03/30 12:43:22;;;;;;;1.50;1.00;;;14.80;98.20;;;;;;4993041;28;20501;-76
2023/03/30 12:46:02;;;;;;;1.50;1.10;;;14.90;98.20;;;;;;5004174;28;20457;-75
2023/03/30 12:48:40;;;;;;;1.50;1.00;;;15.10;98.20;;;;;;5008621;28;20534;-74
2023/03/30 12:51:18;;;;;;;1.50;1.00;;;15.30;98.20;;;;;;5001882;28;20477;-75
2023/03/30 12:54:12;;;;;;;1.50;1.00;;;15.50;98.20;;;;;;5000571;28;21247;-75
2023/03/30 12:56:51;;;;;;;1.50;1.00;;;15.60;98.20;;;;;;5003102;28;20488;-75
2023/03/30 12:59:35;;;;;;;1.50;0.90;;;15.50;98.20;;;;;;5015772;28;20490;-77
2023/03/30 13:02:41;;;;;;;1.50;1.00;;;15.50;98.20;;;;;;5001876;28;20888;-75
2023/03/30 13:05:20;;;;;;;1.50;1.00;;;15.50;98.20;;;;;;4986451;28;20460;-75
2023/03/30 13:07:48;;;;;;;2.80;2.60;;;15.30;98.20;;;;;;4999348;28;20481;-76
2023/03/30 13:10:38;;;;;;;1.50;1.00;;;15.40;98.20;;;;;;5020404;28;20470;-75
2023/03/30 13:13:24;;;;;;;1.50;1.00;;;15.40;98.20;;;;;;4995832;28;20495;-76
2023/03/30 13:15:56;;;;;;;1.50;0.90;;;15.60;98.20;;;;;;5006797;28;20468;-75